Time;durP1;ratioP1;P1;durP2;ratioP2;P2;SDS_P1;SDS_P2;PMS_P1;PMS_P2;Temp;Humidity;BMP_temperature;BMP_pressure;BME280_temperature;BME280_humidity;BME280_pressure;Samples;Min_cycle;Max_cycle;Signal;HPM_P1;HPM_P2
2021/07/05 00:02:24;;;;;;;12.77;10.77;;;17.50;99.90;;;;;;6186500;23;20096;-86
2021/07/05 00:04:50;;;;;;;14.18;11.82;;;17.50;99.90;;;;;;6160374;23;20436;-86
2021/07/05 00:07:20;;;;;;;19.13;12.40;;;17.50;99.90;;;;;;6185073;23;20023;-86
2021/07/05 00:09:46;;;;;;;18.15;10.63;;;17.60;99.90;;;;;;6185212;23;20013;-86
2021/07/05 00:12:12;;;;;;;13.02;11.18;;;17.50;99.90;;;;;;6184388;23;20009;-80
2021/07/05 00:14:39;;;;;;;16.27;11.52;;;17.50;99.90;;;;;;6185792;23;20048;-80
2021/07/05 00:17:05;;;;;;;14.02;11.35;;;17.60;99.90;;;;;;6184108;23;20065;-80
2021/07/05 00:19:36;;;;;;;14.15;11.23;;;17.60;99.90;;;;;;6183519;23;20047;-79
2021/07/05 00:22:02;;;;;;;13.38;10.77;;;17.60;99.90;;;;;;6185690;23;20020;-86
2021/07/05 00:24:28;;;;;;;19.98;12.05;;;17.60;99.90;;;;;;6183243;23;20016;-87
2021/07/05 00:26:54;;;;;;;14.43;11.35;;;17.60;99.90;;;;;;6158774;23;20017;-84
2021/07/05 00:29:21;;;;;;;13.07;10.88;;;17.50;99.90;;;;;;6159093;23;20070;-85
2021/07/05 00:31:47;;;;;;;12.43;11.13;;;17.60;99.90;;;;;;6159476;23;20020;-85
2021/07/05 00:34:13;;;;;;;14.90;11.60;;;17.60;99.90;;;;;;6183766;23;20067;-85
2021/07/05 00:36:39;;;;;;;14.60;10.93;;;17.50;99.90;;;;;;6183997;23;20044;-86
2021/07/05 00:39:09;;;;;;;14.25;11.80;;;17.70;99.90;;;;;;6183354;23;20036;-86
2021/07/05 00:41:36;;;;;;;13.10;11.32;;;17.50;99.90;;;;;;6159460;23;20016;-87
2021/07/05 00:44:02;;;;;;;14.27;11.45;;;17.60;99.90;;;;;;6187818;23;20092;-86
2021/07/05 00:46:30;;;;;;;15.60;12.90;;;17.60;99.90;;;;;;6187798;23;20059;-86
2021/07/05 00:48:56;;;;;;;14.05;11.85;;;17.50;99.90;;;;;;6186787;23;20009;-80
2021/07/05 00:51:23;;;;;;;15.70;12.57;;;17.50;99.90;;;;;;6187691;23;20009;-87
2021/07/05 00:53:54;;;;;;;15.88;12.65;;;17.50;99.90;;;;;;6184309;23;20040;-86
2021/07/05 00:56:24;;;;;;;17.55;13.43;;;17.50;99.90;;;;;;6184120;23;20041;-85
2021/07/05 00:58:50;;;;;;;17.67;12.77;;;17.50;99.90;;;;;;6163415;23;20024;-86
2021/07/05 01:01:20;;;;;;;16.23;12.68;;;17.50;99.90;;;;;;6185001;23;20009;-87
2021/07/05 01:03:48;;;;;;;14.82;12.20;;;17.50;99.90;;;;;;6161398;23;20092;-86
2021/07/05 01:06:15;;;;;;;14.88;13.27;;;17.50;99.90;;;;;;6185823;23;20032;-80
2021/07/05 01:08:41;;;;;;;14.15;12.75;;;17.60;99.90;;;;;;6184070;23;20017;-80
2021/07/05 01:11:07;;;;;;;15.18;13.57;;;17.50;99.90;;;;;;6184264;23;20013;-80
2021/07/05 01:13:36;;;;;;;18.15;13.77;;;17.50;99.90;;;;;;6184243;23;20020;-86
2021/07/05 01:16:04;;;;;;;14.80;13.07;;;17.50;99.90;;;;;;6186661;23;20077;-80
2021/07/05 01:18:30;;;;;;;16.15;12.73;;;17.50;99.90;;;;;;6183854;23;20013;-85
2021/07/05 01:21:02;;;;;;;19.50;13.27;;;17.50;99.90;;;;;;6188959;23;20005;-85
2021/07/05 01:23:28;;;;;;;16.48;13.38;;;17.50;99.90;;;;;;6186935;23;20040;-85
2021/07/05 01:25:58;;;;;;;17.75;12.85;;;17.50;99.90;;;;;;6185141;23;20013;-85
2021/07/05 01:28:25;;;;;;;20.33;14.52;;;17.50;99.90;;;;;;6186954;23;20036;-84
2021/07/05 01:30:51;;;;;;;16.60;13.65;;;17.50;99.90;;;;;;6185597;23;20013;-84
2021/07/05 01:33:21;;;;;;;17.20;13.50;;;17.50;99.90;;;;;;6187489;23;20005;-83
2021/07/05 01:35:47;;;;;;;17.25;14.20;;;17.50;99.90;;;;;;6164592;23;20044;-85
2021/07/05 01:38:17;;;;;;;17.20;12.95;;;17.60;99.90;;;;;;6195269;23;20013;-84
2021/07/05 01:40:51;;;;;;;16.85;13.38;;;17.50;99.90;;;;;;6189863;23;20068;-84
2021/07/05 01:43:17;;;;;;;17.73;13.73;;;17.50;99.90;;;;;;6189768;23;20013;-84
2021/07/05 01:45:52;;;;;;;17.70;14.43;;;17.60;99.90;;;;;;6138745;23;20035;-84
2021/07/05 01:48:18;;;;;;;16.05;13.07;;;17.50;99.90;;;;;;6185641;23;20009;-84
2021/07/05 01:50:44;;;;;;;16.00;13.73;;;17.50;99.90;;;;;;6186303;23;20032;-84
2021/07/05 01:53:11;;;;;;;21.83;12.77;;;17.50;99.90;;;;;;6187018;23;20020;-84
2021/07/05 01:55:38;;;;;;;16.30;13.20;;;17.60;99.90;;;;;;6188376;23;20016;-83
2021/07/05 01:58:08;;;;;;;19.88;14.23;;;17.50;99.90;;;;;;6161036;23;20513;-85
2021/07/05 02:00:40;;;;;;;16.17;13.40;;;17.50;99.90;;;;;;6185154;23;20035;-84
2021/07/05 02:03:09;;;;;;;14.93;12.40;;;17.50;99.90;;;;;;6186245;23;20013;-85
2021/07/05 02:05:35;;;;;;;14.10;12.38;;;17.50;99.90;;;;;;6185304;23;20465;-84
2021/07/05 02:08:03;;;;;;;14.52;12.50;;;17.50;99.90;;;;;;6188739;23;20143;-84
2021/07/05 02:10:31;;;;;;;16.65;13.18;;;17.50;99.90;;;;;;6187395;23;20092;-85
2021/07/05 02:12:59;;;;;;;13.68;12.23;;;17.70;99.90;;;;;;6187235;23;20036;-85
2021/07/05 02:15:28;;;;;;;15.60;13.13;;;17.50;99.90;;;;;;6184442;23;20013;-86
2021/07/05 02:17:54;;;;;;;16.92;13.02;;;17.50;99.90;;;;;;6159611;23;20009;-81
2021/07/05 02:20:23;;;;;;;17.17;12.95;;;17.50;99.90;;;;;;6185226;23;20342;-80
2021/07/05 02:22:51;;;;;;;15.93;12.93;;;17.50;99.90;;;;;;6183010;23;20440;-80
2021/07/05 02:25:20;;;;;;;15.80;13.18;;;17.50;99.90;;;;;;6186959;23;20013;-80
2021/07/05 02:27:47;;;;;;;18.85;13.13;;;17.50;99.90;;;;;;6183452;23;20091;-80
2021/07/05 02:30:20;;;;;;;20.60;13.95;;;17.50;99.90;;;;;;6186425;23;20439;-81
2021/07/05 02:32:47;;;;;;;17.73;13.15;;;17.50;99.90;;;;;;6187153;23;20076;-81
2021/07/05 02:35:16;;;;;;;18.10;13.50;;;17.50;99.90;;;;;;6186286;23;20522;-80
2021/07/05 02:37:44;;;;;;;18.92;13.43;;;17.40;99.90;;;;;;6187471;23;20466;-79
2021/07/05 02:40:12;;;;;;;17.05;13.77;;;17.40;99.90;;;;;;6185265;23;20024;-80
2021/07/05 02:42:41;;;;;;;16.90;12.85;;;17.40;99.90;;;;;;6161138;23;20017;-80
2021/07/05 02:45:27;;;;;;;16.60;12.95;;;17.40;99.90;;;;;;6186107;23;20013;-80
2021/07/05 02:47:56;;;;;;;20.90;12.70;;;17.40;99.90;;;;;;6186153;23;20016;-80
2021/07/05 02:50:22;;;;;;;17.35;13.38;;;17.40;99.90;;;;;;6184749;23;20020;-80
2021/07/05 02:52:50;;;;;;;17.83;13.15;;;17.30;99.90;;;;;;6188592;23;20044;-85
2021/07/05 02:55:17;;;;;;;17.65;13.02;;;17.30;99.90;;;;;;6184776;23;20009;-85
2021/07/05 02:57:45;;;;;;;16.92;12.65;;;17.30;99.90;;;;;;6187942;23;20383;-86
2021/07/05 03:00:18;;;;;;;17.83;13.63;;;17.10;99.90;;;;;;6187287;23;20043;-86
2021/07/05 03:02:46;;;;;;;17.10;13.70;;;17.30;99.90;;;;;;6160298;23;20013;-86
2021/07/05 03:05:13;;;;;;;23.90;14.25;;;17.30;99.90;;;;;;6188033;23;20016;-84
2021/07/05 03:07:42;;;;;;;17.65;12.88;;;17.30;99.90;;;;;;6188219;23;20016;-85
2021/07/05 03:10:10;;;;;;;17.02;14.00;;;17.30;99.90;;;;;;6184511;23;20013;-85
2021/07/05 03:12:37;;;;;;;17.30;13.73;;;17.30;99.90;;;;;;6185159;23;20013;-84
2021/07/05 03:15:07;;;;;;;20.98;13.98;;;17.30;99.90;;;;;;6113303;23;20017;-84
2021/07/05 03:17:33;;;;;;;22.10;14.57;;;17.30;99.90;;;;;;6190462;23;20013;-84
2021/07/05 03:19:59;;;;;;;20.02;14.85;;;17.30;99.90;;;;;;6186509;23;20032;-84
2021/07/05 03:22:25;;;;;;;20.75;14.43;;;17.30;99.90;;;;;;6189287;23;20018;-84
2021/07/05 03:24:51;;;;;;;17.05;13.73;;;17.20;99.90;;;;;;6187290;23;20044;-84
2021/07/05 03:27:17;;;;;;;21.50;14.10;;;17.20;99.90;;;;;;6190524;23;20013;-83
2021/07/05 03:29:43;;;;;;;17.00;13.35;;;17.30;99.90;;;;;;6194915;23;20013;-85
2021/07/05 03:32:10;;;;;;;25.08;13.60;;;17.20;99.90;;;;;;6186115;23;20359;-85
2021/07/05 03:34:36;;;;;;;19.15;13.32;;;17.30;99.90;;;;;;6188080;23;20032;-84
2021/07/05 03:37:02;;;;;;;18.27;13.43;;;17.20;99.90;;;;;;6161796;23;20013;-85
2021/07/05 03:39:29;;;;;;;18.35;12.77;;;17.20;99.90;;;;;;6188080;23;20435;-85
2021/07/05 03:41:54;;;;;;;17.60;13.25;;;17.20;99.90;;;;;;6137047;23;20044;-84
2021/07/05 03:44:21;;;;;;;19.05;12.55;;;17.20;99.90;;;;;;6186370;23;20467;-84
2021/07/05 03:46:47;;;;;;;18.13;12.82;;;17.10;99.90;;;;;;6161230;23;20071;-84
2021/07/05 03:49:13;;;;;;;19.25;13.57;;;17.20;99.90;;;;;;6186152;23;20008;-82
2021/07/05 03:51:39;;;;;;;20.63;13.70;;;17.10;99.90;;;;;;6187497;23;20063;-84
2021/07/05 03:54:05;;;;;;;17.80;13.82;;;17.10;99.90;;;;;;6187775;23;20093;-85
2021/07/05 03:56:31;;;;;;;20.15;14.38;;;17.00;99.90;;;;;;6188415;23;20013;-84
2021/07/05 03:58:56;;;;;;;20.05;13.75;;;17.00;99.90;;;;;;6186666;23;20059;-79
2021/07/05 04:01:22;;;;;;;20.98;14.60;;;17.00;99.90;;;;;;6185428;23;20017;-78
2021/07/05 04:03:57;;;;;;;21.48;14.65;;;16.90;99.90;;;;;;6184131;23;20092;-79
2021/07/05 04:06:33;;;;;;;;;;;;;;;;;;;;;
2021/07/05 04:09:00;;;;;;;21.33;16.27;;;16.90;99.90;;;;;;6185720;23;20017;-79
2021/07/05 04:11:26;;;;;;;23.63;17.35;;;16.80;99.90;;;;;;6159993;23;20009;-79
2021/07/05 04:13:52;;;;;;;22.45;16.80;;;16.80;99.90;;;;;;6183857;23;20059;-79
2021/07/05 04:16:21;;;;;;;23.23;18.10;;;16.80;99.90;;;;;;6184950;23;20033;-79
2021/07/05 04:18:47;;;;;;;26.23;18.63;;;16.80;99.90;;;;;;6184096;23;20439;-78
2021/07/05 04:21:13;;;;;;;29.17;19.35;;;16.80;99.90;;;;;;6186529;23;20013;-79
2021/07/05 04:23:39;;;;;;;28.25;20.10;;;17.50;99.90;;;;;;6158978;23;20013;-79
2021/07/05 04:26:05;;;;;;;27.73;20.27;;;16.80;99.90;;;;;;6186237;23;20016;-86
2021/07/05 04:28:31;;;;;;;31.90;21.65;;;16.80;99.90;;;;;;6186145;23;20016;-86
2021/07/05 04:30:57;;;;;;;31.42;22.15;;;16.80;99.90;;;;;;6188033;23;20039;-86
2021/07/05 04:33:25;;;;;;;32.25;23.08;;;16.80;99.90;;;;;;6185604;23;20104;-84
2021/07/05 04:35:51;;;;;;;33.97;23.45;;;16.80;99.90;;;;;;6161025;23;20048;-85
2021/07/05 04:38:17;;;;;;;33.83;23.42;;;16.80;99.90;;;;;;6184686;23;20013;-84
2021/07/05 04:40:43;;;;;;;38.70;23.77;;;16.80;99.90;;;;;;6162964;23;20079;-84
2021/07/05 04:43:10;;;;;;;35.00;24.70;;;16.80;99.90;;;;;;6186857;23;20017;-85
2021/07/05 04:45:38;;;;;;;36.13;24.25;;;16.80;99.90;;;;;;6186822;23;20017;-85
2021/07/05 04:48:07;;;;;;;39.15;25.83;;;16.90;99.90;;;;;;6188670;23;20036;-85
2021/07/05 04:50:34;;;;;;;39.97;26.17;;;16.80;99.90;;;;;;6186160;23;20087;-84
2021/07/05 04:53:00;;;;;;;39.05;26.15;;;16.90;99.90;;;;;;6188051;23;20021;-85
2021/07/05 04:55:27;;;;;;;38.45;26.15;;;16.90;99.90;;;;;;6186766;23;20439;-84
2021/07/05 04:57:53;;;;;;;36.85;25.55;;;16.90;99.90;;;;;;6189292;23;20108;-84
2021/07/05 05:00:27;;;;;;;37.20;26.30;;;16.90;99.90;;;;;;6187910;23;20087;-84
2021/07/05 05:02:56;;;;;;;39.05;26.83;;;16.90;99.90;;;;;;6164911;23;20019;-85
2021/07/05 05:05:22;;;;;;;36.53;26.17;;;17.00;99.90;;;;;;6184548;23;20009;-78
2021/07/05 05:07:52;;;;;;;35.67;25.98;;;16.90;99.90;;;;;;6184787;23;20088;-83
2021/07/05 05:10:21;;;;;;;40.75;26.77;;;16.90;99.90;;;;;;6187495;23;20017;-84
2021/07/05 05:12:48;;;;;;;36.15;26.98;;;16.90;99.90;;;;;;6188449;23;20013;-84
2021/07/05 05:15:17;;;;;;;31.83;24.35;;;16.90;99.90;;;;;;6188508;23;20024;-84
2021/07/05 05:17:43;;;;;;;36.47;26.45;;;16.90;99.90;;;;;;6193716;23;20013;-84
2021/07/05 05:20:11;;;;;;;34.00;26.08;;;17.00;99.90;;;;;;6189490;23;20015;-85
2021/07/05 05:22:38;;;;;;;45.47;27.55;;;17.00;99.90;;;;;;6186905;23;20084;-85
2021/07/05 05:25:12;;;;;;;39.55;27.25;;;17.00;99.90;;;;;;6190011;23;20015;-86
2021/07/05 05:27:39;;;;;;;36.58;28.25;;;17.10;99.90;;;;;;6185152;23;20016;-85
2021/07/05 05:30:10;;;;;;;38.13;28.55;;;17.10;99.90;;;;;;6187161;23;20017;-87
2021/07/05 05:32:37;;;;;;;38.47;28.15;;;17.10;99.90;;;;;;6185432;23;20470;-85
2021/07/05 05:35:05;;;;;;;36.92;27.90;;;17.20;99.90;;;;;;6186101;23;20013;-78
2021/07/05 05:37:31;;;;;;;41.85;29.25;;;17.20;99.90;;;;;;6184473;23;20458;-79
2021/07/05 05:39:57;;;;;;;39.42;29.73;;;17.20;99.90;;;;;;6186648;23;20013;-87
2021/07/05 05:42:23;;;;;;;42.97;28.13;;;17.20;99.90;;;;;;6185328;23;20013;-82
2021/07/05 05:44:52;;;;;;;39.10;28.33;;;17.20;99.90;;;;;;6184908;23;20092;-77
2021/07/05 05:47:25;;;;;;;;;;;17.20;99.90;;;;;;6188145;23;20068;-83
2021/07/05 05:49:58;;;;;;;41.80;28.13;;;17.20;99.90;;;;;;6164994;23;19944;-83
2021/07/05 05:52:36;;;;;;;37.35;27.15;;;17.20;99.90;;;;;;6183786;23;20021;-82
2021/07/05 05:55:04;;;;;;;35.58;25.75;;;17.20;99.90;;;;;;6184936;23;20020;-83
2021/07/05 05:57:31;;;;;;;32.55;25.15;;;17.20;99.90;;;;;;6182012;23;20017;-77
2021/07/05 06:03:47;;;;;;;32.38;23.52;;;17.20;99.90;;;;;;6166820;23;20024;-76
2021/07/05 06:05:51;;;;;;;34.35;24.13;;;17.20;99.90;;;;;;6170195;23;20017;-76
2021/07/05 06:08:17;;;;;;;32.83;22.42;;;17.20;99.90;;;;;;6182494;23;20021;-76
2021/07/05 06:10:43;;;;;;;30.38;23.90;;;17.20;99.90;;;;;;6160027;23;20020;-76
2021/07/05 06:13:08;;;;;;;34.95;24.88;;;17.20;99.90;;;;;;6158999;23;20383;-76
2021/07/05 06:15:34;;;;;;;34.45;24.08;;;17.20;99.90;;;;;;6157180;23;20017;-76
2021/07/05 06:18:01;;;;;;;34.53;25.23;;;17.20;99.90;;;;;;6134909;23;20033;-77
2021/07/05 06:20:28;;;;;;;34.35;22.75;;;17.20;99.90;;;;;;6184090;23;20557;-77
2021/07/05 06:22:56;;;;;;;31.05;23.38;;;17.20;99.90;;;;;;6186442;23;20017;-77
2021/07/05 06:25:24;;;;;;;36.05;24.55;;;17.20;99.90;;;;;;6182999;23;20022;-77
2021/07/05 06:27:50;;;;;;;31.05;24.02;;;17.20;99.90;;;;;;6184065;23;20079;-77
2021/07/05 06:30:17;;;;;;;33.15;23.40;;;17.20;99.90;;;;;;6183775;23;20016;-77
2021/07/05 06:32:45;;;;;;;31.23;23.52;;;17.20;99.90;;;;;;6183836;23;20009;-77
2021/07/05 06:35:13;;;;;;;52.30;23.67;;;17.10;99.90;;;;;;6156754;23;20018;-75
2021/07/05 06:37:39;;;;;;;33.85;22.20;;;17.10;99.90;;;;;;6182497;23;20009;-74
2021/07/05 06:40:07;;;;;;;36.03;23.20;;;17.10;99.90;;;;;;6184162;23;20021;-74
2021/07/05 06:42:34;;;;;;;35.35;23.58;;;17.00;99.90;;;;;;6184162;23;20016;-73
2021/07/05 06:45:00;;;;;;;38.05;23.13;;;17.00;99.90;;;;;;6181696;23;20154;-73
2021/07/05 06:47:27;;;;;;;30.90;21.88;;;16.90;99.90;;;;;;6183787;23;20085;-74
2021/07/05 06:49:53;;;;;;;49.63;24.58;;;16.90;99.90;;;;;;6185338;23;20459;-76
2021/07/05 06:52:19;;;;;;;55.17;26.08;;;16.90;99.90;;;;;;6184274;23;20016;-76
2021/07/05 06:54:45;;;;;;;36.40;23.38;;;16.80;99.90;;;;;;6184218;23;20008;-76
2021/07/05 06:57:29;;;;;;;28.33;19.67;;;16.80;99.90;;;;;;6185987;23;20013;-76
2021/07/05 06:59:58;;;;;;;31.83;19.98;;;16.70;99.90;;;;;;6160958;23;20009;-76
2021/07/05 07:02:25;;;;;;;30.05;17.20;;;16.70;99.90;;;;;;6184339;23;20064;-77
2021/07/05 07:04:51;;;;;;;28.65;12.15;;;16.60;99.90;;;;;;6181094;23;20021;-77
2021/07/05 07:07:20;;;;;;;18.30;8.00;;;16.50;99.90;;;;;;6181594;23;20037;-76
2021/07/05 07:09:45;;;;;;;11.23;6.30;;;16.50;99.90;;;;;;6185121;23;20023;-76
2021/07/05 07:12:11;;;;;;;18.98;6.15;;;16.30;99.90;;;;;;6184827;23;20075;-75
2021/07/05 07:14:37;;;;;;;16.23;6.35;;;16.10;99.90;;;;;;6183706;23;20012;-76
2021/07/05 07:17:19;;;;;;;13.88;6.28;;;16.00;99.90;;;;;;6182822;23;20017;-76
2021/07/05 07:19:44;;;;;;;17.05;6.88;;;16.30;99.90;;;;;;6184072;23;20020;-76
2021/07/05 07:22:10;;;;;;;9.15;4.18;;;15.90;99.90;;;;;;6185549;23;20432;-75
2021/07/05 07:24:36;;;;;;;13.38;3.80;;;15.80;99.90;;;;;;6182798;23;20435;-75
2021/07/05 07:27:02;;;;;;;7.20;2.72;;;15.80;99.90;;;;;;6184716;23;20502;-75
2021/07/05 07:29:28;;;;;;;10.52;2.85;;;15.70;99.90;;;;;;6187085;23;20013;-75
2021/07/05 07:31:54;;;;;;;20.75;3.42;;;15.70;99.90;;;;;;6182951;23;20511;-76
2021/07/05 07:34:21;;;;;;;10.23;3.00;;;15.60;99.90;;;;;;6185380;23;20040;-75
2021/07/05 07:36:47;;;;;;;15.68;3.40;;;15.60;99.90;;;;;;6185248;23;20017;-76
2021/07/05 07:39:16;;;;;;;31.23;5.35;;;15.60;99.90;;;;;;6186503;23;20016;-75
2021/07/05 07:41:42;;;;;;;12.05;3.63;;;15.60;99.90;;;;;;6187904;23;20016;-75
2021/07/05 07:44:11;;;;;;;9.93;3.53;;;15.50;99.90;;;;;;6183545;23;20012;-78
2021/07/05 07:46:42;;;;;;;18.95;4.25;;;15.50;99.90;;;;;;6209787;23;20017;-78
2021/07/05 07:49:09;;;;;;;7.43;3.00;;;15.50;99.90;;;;;;6209044;23;20040;-79
2021/07/05 07:51:34;;;;;;;6.25;2.90;;;15.50;99.90;;;;;;6183511;23;20013;-78
2021/07/05 07:54:03;;;;;;;4.32;1.90;;;15.50;99.90;;;;;;6186390;23;20316;-80
2021/07/05 07:56:30;;;;;;;9.73;2.90;;;15.50;99.90;;;;;;6185014;23;20083;-80
2021/07/05 07:58:59;;;;;;;6.90;3.00;;;15.50;99.90;;;;;;6185160;23;20143;-80
2021/07/05 08:01:27;;;;;;;25.67;4.10;;;15.40;99.90;;;;;;6185085;23;20443;-81
2021/07/05 08:03:54;;;;;;;16.20;3.33;;;15.40;99.90;;;;;;6187776;23;20443;-82
2021/07/05 08:06:21;;;;;;;8.35;3.22;;;15.40;99.90;;;;;;6186692;23;20009;-82
2021/07/05 08:08:50;;;;;;;7.95;3.55;;;15.40;99.90;;;;;;6185993;23;20028;-82
2021/07/05 08:11:17;;;;;;;9.63;3.80;;;15.50;99.90;;;;;;6185944;23;20032;-83
2021/07/05 08:13:45;;;;;;;7.97;3.58;;;15.50;99.90;;;;;;6188225;23;20013;-81
2021/07/05 08:16:11;;;;;;;9.00;3.97;;;15.50;99.90;;;;;;6180965;23;20009;-81
2021/07/05 08:18:40;;;;;;;10.52;3.90;;;15.50;99.90;;;;;;6182210;23;20435;-79
2021/07/05 08:21:11;;;;;;;9.85;3.58;;;15.50;99.90;;;;;;6159430;23;20020;-81
2021/07/05 08:23:37;;;;;;;5.88;3.42;;;15.60;99.90;;;;;;6185482;23;20037;-81
2021/07/05 08:26:04;;;;;;;6.32;2.90;;;15.60;99.90;;;;;;6159417;23;20055;-81
2021/07/05 08:28:30;;;;;;;5.30;2.85;;;15.60;99.90;;;;;;6187001;23;20047;-81
2021/07/05 08:30:57;;;;;;;5.38;2.80;;;15.60;99.90;;;;;;6183384;23;20125;-81
2021/07/05 08:33:24;;;;;;;10.20;2.92;;;15.60;99.90;;;;;;6158022;23;20021;-79
2021/07/05 08:35:53;;;;;;;8.82;2.97;;;15.60;99.90;;;;;;6208074;23;20009;-79
2021/07/05 08:38:19;;;;;;;7.32;3.33;;;15.70;99.90;;;;;;6187076;23;20068;-77
2021/07/05 08:40:46;;;;;;;8.90;3.83;;;15.70;99.90;;;;;;6182351;23;20016;-78
2021/07/05 08:43:12;;;;;;;7.35;3.50;;;15.80;99.90;;;;;;6183571;23;20017;-78
2021/07/05 08:45:40;;;;;;;6.70;4.20;;;15.80;99.90;;;;;;6184439;23;20009;-78
2021/07/05 08:48:09;;;;;;;8.00;5.10;;;15.90;99.90;;;;;;6209607;23;20451;-79
2021/07/05 08:50:35;;;;;;;13.02;5.50;;;16.00;99.90;;;;;;6183390;23;20021;-79
2021/07/05 08:53:01;;;;;;;9.98;5.25;;;16.10;99.90;;;;;;6184273;23;20393;-79
2021/07/05 08:55:28;;;;;;;10.77;6.30;;;16.20;99.90;;;;;;6185030;23;20340;-78
2021/07/05 08:57:55;;;;;;;10.73;6.25;;;16.20;99.90;;;;;;6183200;23;20044;-89
2021/07/05 09:00:27;;;;;;;10.60;5.55;;;16.30;99.90;;;;;;6184133;23;20063;-88
2021/07/05 09:02:59;;;;;;;13.25;7.15;;;16.40;99.90;;;;;;6184834;23;20063;-88
2021/07/05 09:05:25;;;;;;;14.68;6.65;;;16.40;99.90;;;;;;6184271;23;20020;-89
2021/07/05 09:08:03;;;;;;;9.48;5.95;;;16.60;99.90;;;;;;6162652;23;20387;-88
2021/07/05 09:10:46;;;;;;;;;;;16.70;99.90;;;;;;6187337;23;20506;-87
2021/07/05 09:13:24;;;;;;;10.45;7.20;;;16.70;99.90;;;;;;6186836;23;19912;-88
2021/07/05 09:15:52;;;;;;;14.32;7.70;;;16.70;99.90;;;;;;6185195;23;20009;-88
2021/07/05 09:18:30;;;;;;;14.55;7.60;;;16.70;99.90;;;;;;6185323;23;20008;-88
2021/07/05 09:21:16;;;;;;;13.77;9.05;;;16.70;99.90;;;;;;6186738;23;20435;-88
2021/07/05 09:23:51;;;;;;;16.73;9.60;;;16.70;99.90;;;;;;6182718;23;20016;-88
2021/07/05 09:26:29;;;;;;;16.38;9.48;;;16.70;99.90;;;;;;6159898;23;20100;-88
2021/07/05 09:28:57;;;;;;;18.77;9.60;;;16.80;99.90;;;;;;6163803;23;20099;-88
2021/07/05 09:31:41;;;;;;;16.48;9.90;;;16.90;99.90;;;;;;6163391;23;20016;-88
2021/07/05 09:34:18;;;;;;;16.67;10.00;;;16.90;99.90;;;;;;6190420;23;20013;-89
2021/07/05 09:36:46;;;;;;;21.13;10.90;;;17.00;99.90;;;;;;6186458;23;20013;-88
2021/07/05 09:39:22;;;;;;;21.33;10.73;;;17.00;99.90;;;;;;6184429;23;20505;-88
2021/07/05 09:41:55;;;;;;;18.25;9.23;;;17.00;99.90;;;;;;6186858;23;20009;-88
2021/07/05 09:44:28;;;;;;;19.80;10.63;;;17.00;99.90;;;;;;6186178;23;20450;-88
2021/07/05 09:46:56;;;;;;;19.38;10.40;;;16.70;99.90;;;;;;6188422;23;20013;-89
2021/07/05 09:49:35;;;;;;;18.00;10.35;;;16.90;99.90;;;;;;6187732;23;20143;-88
2021/07/05 09:52:25;;;;;;;25.63;11.85;;;16.90;99.90;;;;;;6185761;23;20013;-88
2021/07/05 09:54:59;;;;;;;26.30;12.70;;;16.90;99.90;;;;;;6186688;23;20013;-88
2021/07/05 09:57:50;;;;;;;23.63;12.60;;;16.90;99.90;;;;;;6160380;23;20100;-81
2021/07/05 10:00:22;;;;;;;20.70;12.60;;;17.00;99.90;;;;;;6172194;23;20044;-82
2021/07/05 10:02:57;;;;;;;21.95;13.63;;;17.00;99.90;;;;;;6181415;23;20335;-82
2021/07/05 10:05:55;;;;;;;23.73;13.18;;;17.10;99.90;;;;;;6185154;23;20335;-82
2021/07/05 10:08:32;;;;;;;17.42;12.75;;;17.10;99.90;;;;;;6181876;23;20096;-83
2021/07/05 10:11:11;;;;;;;21.88;14.80;;;17.80;99.90;;;;;;6183758;23;20116;-82
2021/07/05 10:13:38;;;;;;;24.77;14.95;;;17.30;99.90;;;;;;6185689;23;20375;-81
2021/07/05 10:16:12;;;;;;;21.25;13.32;;;17.40;99.90;;;;;;6183278;23;20013;-81
2021/07/05 10:18:45;;;;;;;21.80;12.18;;;17.40;99.90;;;;;;6157952;23;20013;-82
2021/07/05 10:21:12;;;;;;;19.80;12.82;;;17.10;99.90;;;;;;6158277;23;20017;-78
2021/07/05 10:23:39;;;;;;;22.50;13.82;;;17.40;99.90;;;;;;6183747;23;20017;-77
2021/07/05 10:26:06;;;;;;;23.08;13.95;;;17.20;99.90;;;;;;6182381;23;20052;-78
2021/07/05 10:28:37;;;;;;;23.35;13.68;;;17.40;99.90;;;;;;6185241;23;20020;-78
2021/07/05 10:31:03;;;;;;;18.10;13.02;;;17.50;99.90;;;;;;6160067;23;20083;-78
2021/07/05 10:33:29;;;;;;;24.60;12.90;;;17.60;99.90;;;;;;6183355;23;20342;-79
2021/07/05 10:36:06;;;;;;;19.15;11.50;;;17.60;99.90;;;;;;6159120;23;20450;-76
2021/07/05 10:38:48;;;;;;;16.30;10.02;;;17.70;99.90;;;;;;6184255;23;20428;-75
2021/07/05 10:41:16;;;;;;;19.42;11.40;;;17.70;99.90;;;;;;6186062;23;20009;-76
2021/07/05 10:43:58;;;;;;;21.30;11.60;;;17.70;99.90;;;;;;6181393;23;20013;-75
2021/07/05 10:46:43;;;;;;;16.85;11.02;;;17.70;99.90;;;;;;6183440;23;20024;-76
2021/07/05 10:49:30;;;;;;;25.25;13.48;;;17.70;99.90;;;;;;6184402;23;20013;-76
2021/07/05 10:52:12;;;;;;;19.33;12.73;;;17.80;99.90;;;;;;6169335;23;20474;-78
2021/07/05 10:54:54;;;;;;;13.73;10.25;;;17.80;99.90;;;;;;6187550;23;20013;-78
2021/07/05 10:57:45;;;;;;;20.85;11.05;;;17.90;99.90;;;;;;6183069;23;20039;-78
2021/07/05 11:00:18;;;;;;;18.30;11.23;;;18.00;99.90;;;;;;6183226;23;20428;-77
2021/07/05 11:02:46;;;;;;;21.15;11.90;;;18.00;99.90;;;;;;6184696;23;20016;-77
2021/07/05 11:05:32;;;;;;;16.33;11.48;;;18.10;99.90;;;;;;6183320;23;20017;-76
2021/07/05 11:08:21;;;;;;;18.02;9.82;;;18.10;99.90;;;;;;6185166;23;20407;-76
2021/07/05 11:10:49;;;;;;;20.02;10.98;;;18.10;99.90;;;;;;6186298;23;20009;-76
2021/07/05 11:13:18;;;;;;;20.20;11.85;;;18.10;99.90;;;;;;6185995;23;20009;-76
2021/07/05 11:15:58;;;;;;;21.02;13.85;;;18.10;99.90;;;;;;6185898;23;20092;-76
2021/07/05 11:18:37;;;;;;;16.15;11.60;;;18.10;99.90;;;;;;6184653;23;20020;-76
2021/07/05 11:21:29;;;;;;;24.48;11.75;;;18.10;99.90;;;;;;6185403;23;20074;-77
2021/07/05 11:23:59;;;;;;;18.20;10.93;;;18.20;99.90;;;;;;6162706;23;20339;-77
2021/07/05 11:26:31;;;;;;;14.93;8.23;;;18.20;99.90;;;;;;6186461;23;20013;-76
2021/07/05 11:29:15;;;;;;;17.15;9.85;;;18.30;99.90;;;;;;6211126;23;20304;-76
2021/07/05 11:31:54;;;;;;;18.52;10.13;;;18.30;99.90;;;;;;6188384;23;20047;-77
2021/07/05 11:34:35;;;;;;;18.25;10.50;;;18.30;99.90;;;;;;6187218;23;20435;-77
2021/07/05 11:37:13;;;;;;;13.85;8.68;;;18.40;99.90;;;;;;6186168;23;20013;-77
2021/07/05 11:39:40;;;;;;;20.90;10.25;;;18.60;99.90;;;;;;6187449;23;20040;-77
2021/07/05 11:42:06;;;;;;;19.50;9.90;;;18.70;99.90;;;;;;6185035;23;20119;-76
2021/07/05 11:44:48;;;;;;;18.50;9.55;;;18.80;99.90;;;;;;6185839;23;20435;-77
2021/07/05 11:47:36;;;;;;;17.73;9.70;;;18.80;99.90;;;;;;6186003;23;20025;-77
2021/07/05 11:50:14;;;;;;;15.63;8.90;;;19.00;99.90;;;;;;6185807;23;20092;-77
2021/07/05 11:53:11;;;;;;;11.90;7.93;;;19.00;99.90;;;;;;6184614;23;20013;-77
2021/07/05 11:55:37;;;;;;;20.60;9.07;;;19.00;99.90;;;;;;6185723;23;20048;-77
2021/07/05 11:58:06;;;;;;;17.63;9.05;;;19.00;99.90;;;;;;6185893;23;20016;-77
2021/07/05 12:00:35;;;;;;;15.48;9.48;;;18.90;99.90;;;;;;6186578;23;20092;-77
2021/07/05 12:03:07;;;;;;;16.02;9.73;;;18.90;99.90;;;;;;6184271;23;20009;-77
2021/07/05 12:05:35;;;;;;;11.82;7.65;;;18.90;99.90;;;;;;6185917;23;20005;-77
2021/07/05 12:08:06;;;;;;;15.13;8.40;;;18.80;99.90;;;;;;6184386;23;20017;-76
2021/07/05 12:10:34;;;;;;;16.90;8.90;;;18.90;99.90;;;;;;6185171;23;20013;-76
2021/07/05 12:13:22;;;;;;;14.73;8.52;;;18.90;99.90;;;;;;6209404;23;20132;-77
2021/07/05 12:15:57;;;;;;;19.30;8.43;;;18.90;99.90;;;;;;6185812;23;20015;-77
2021/07/05 12:18:23;;;;;;;12.40;7.65;;;18.90;99.90;;;;;;6186264;23;20009;-77
2021/07/05 12:21:03;;;;;;;16.65;8.18;;;19.00;99.90;;;;;;6186840;23;20036;-77
2021/07/05 12:23:38;;;;;;;15.52;6.47;;;19.10;99.90;;;;;;6208313;23;20017;-73
2021/07/05 12:26:15;;;;;;;16.50;8.27;;;19.20;99.90;;;;;;6184054;23;20009;-74
2021/07/05 12:29:11;;;;;;;13.82;7.53;;;19.20;99.90;;;;;;6183952;23;20018;-73
2021/07/05 12:31:55;;;;;;;17.33;8.63;;;19.30;99.90;;;;;;6184151;23;20019;-73
2021/07/05 12:34:38;;;;;;;19.88;8.73;;;19.20;99.90;;;;;;6185250;23;20477;-73
2021/07/05 12:37:05;;;;;;;20.70;7.15;;;19.10;99.90;;;;;;6184883;23;20013;-73
2021/07/05 12:39:51;;;;;;;16.00;6.75;;;19.10;99.90;;;;;;6185609;23;20013;-74
2021/07/05 12:42:37;;;;;;;17.23;7.35;;;19.20;99.90;;;;;;6186038;23;20020;-74
2021/07/05 12:45:16;;;;;;;13.43;6.47;;;19.20;99.90;;;;;;6183927;23;20017;-78
2021/07/05 12:47:53;;;;;;;11.48;5.72;;;19.20;99.90;;;;;;6187675;23;20118;-73
2021/07/05 12:50:25;;;;;;;14.60;6.60;;;19.20;99.90;;;;;;6185307;23;20143;-73
2021/07/05 12:53:01;;;;;;;15.20;6.38;;;19.20;99.90;;;;;;6186633;23;20016;-73